Natrona, Wyoming
Current Conditions -  °F | °C
As of 12:53 PM on Monday 24 Nov 2014 (Local Time) from KCPR Reporting Station
Overcast Overcast  
Wind Chill: 26°   Ceiling: 8000
Heat Index: 36°   Visibility: 10mi
Dew Point: 15°   Wind: 18mph
Humidity: 43%   Direction: 310°NW
Pressure: 30.06"   Gusts: 32mph
Location:  43.03°N, 106.81°W
Report Text: KCPR 241953Z 31016G28KT 10SM SCT060 BKN080 OVC110 02/M09 A3006 RMK AO2 PK WND 30030/1935 SLP199 T00221094
Loading
Personal Weather Stations






























Interactive Weather Map New forecast layout! Learn more

10-Day Weather Forecast

Advertisements
Track Severe Weather on mobile